| time (UTC) | temp C | wind direction | speed KPH | gust KPH | rain 1hr cm | rain 24hr cm | rain mn cm | humidity % | barometer mb |
| 20260905182619 | 13 | 258 | 11.3 | 17.7 | 0.13 | 0.00 | 0.00 | 90 | |
| 20260905181618 | 13 | 258 | 14.5 | 24.1 | 0.08 | 0.00 | 0.00 | 90 | |
| 20260905180617 | 13 | 300 | 9.7 | 22.5 | 0.00 | 0.00 | 0.00 | 88 | |
| 20260905175616 | 12 | 194 | 3.2 | 6.4 | 0.00 | 0.00 | 0.00 | 91 | |
| 20260905174615 | 12 | 211 | 4.8 | 6.4 | 0.00 | 0.00 | 0.00 | 89 | |
| 20260905173613 | 13 | 194 | 6.4 | 9.7 | 0.00 | 0.00 | 0.00 | 88 | |
| 20260905172613 | 13 | 228 | 8.0 | 9.7 | 0.00 | 0.00 | 0.00 | 86 | |
| 20260905171612 | 13 | 246 | 9.7 | 16.1 | 0.03 | 0.00 | 0.00 | 86 | |
| 20260905170610 | 13 | 268 | 14.5 | 22.5 | 0.03 | 0.00 | 0.00 | 84 | |
| 20260905165609 | 14 | 258 | 20.9 | 38.6 | 0.03 | 0.00 | 0.00 | 83 | |
| 20260905164608 | 16 | 255 | 6.4 | 14.5 | 0.00 | 0.00 | 0.00 | 71 | |
| 20260905163607 | 16 | 270 | 8.0 | 9.7 | 0.00 | 0.00 | 0.00 | 75 | |
| 20260905162606 | 16 | 318 | 9.7 | 16.1 | 0.00 | 0.00 | 0.00 | 74 | |
| 20260905161606 | 16 | 306 | 11.3 | 16.1 | 0.00 | 0.00 | 0.00 | 69 | |
| 20260905160605 | 17 | 225 | 16.1 | 24.1 | 0.00 | 0.00 | 0.00 | 66 | |
| 20260905154602 | 19 | 251 | 22.5 | 33.8 | 0.00 | 0.00 | 0.00 | 50 | |
| 20260905153558 | 19 | 242 | 20.9 | 37.0 | 0.00 | 0.00 | 0.00 | 48 | |
| 20260905152558 | 19 | 238 | 22.5 | 32.2 | 0.00 | 0.00 | 0.00 | 50 | |
| 20260905151557 | 20 | 222 | 22.5 | 33.8 | 0.00 | 0.00 | 0.00 | 48 | |
| 20260905150555 | 20 | 257 | 19.3 | 27.4 | 0.00 | 0.00 | 0.00 | 49 | |
| 20260905145554 | 20 | 224 | 22.5 | 37.0 | 0.00 | 0.00 | 0.00 | 47 | |
| 20260905144553 | 20 | 251 | 20.9 | 32.2 | 0.00 | 0.00 | 0.00 | 50 | |
| 20260905143551 | 20 | 228 | 22.5 | 35.4 | 0.00 | 0.00 | 0.00 | 49 | |
| 20260905142551 | 20 | 231 | 22.5 | 35.4 | 0.00 | 0.00 | 0.00 | 45 | |
| 20260905141549 | 20 | 245 | 25.7 | 37.0 | 0.00 | 0.00 | 0.00 | 48 | |
| 20260905140549 | 20 | 229 | 27.4 | 38.6 | 0.00 | 0.00 | 0.00 | 46 | |
| 20260905135548 | 20 | 235 | 25.7 | 35.4 | 0.00 | 0.00 | 0.00 | 48 | |
| 20260905134546 | 20 | 240 | 25.7 | 35.4 | 0.00 | 0.00 | 0.00 | 51 | |
| 20260905133545 | 20 | 236 | 22.5 | 32.2 | 0.00 | 0.00 | 0.00 | 51 | |
| 20260905132544 | 19 | 248 | 19.3 | 27.4 | 0.00 | 0.00 | 0.00 | 53 | |
| 20260905131543 | 18 | 238 | 22.5 | 32.2 | 0.00 | 0.00 | 0.00 | 55 | |
| 20260905130543 | 19 | 256 | 24.1 | 35.4 | 0.00 | 0.00 | 0.00 | 53 | |
| 20260905125542 | 19 | 262 | 22.5 | 35.4 | 0.00 | 0.00 | 0.00 | 55 | |
| 20260905124540 | 18 | 257 | 24.1 | 33.8 | 0.00 | 0.00 | 0.00 | 56 | |
| 20260905123539 | 18 | 253 | 20.9 | 32.2 | 0.00 | 0.00 | 0.00 | 57 | |
| 20260905122538 | 18 | 238 | 20.9 | 33.8 | 0.00 | 0.00 | 0.00 | 60 | |
| 20260905121538 | 18 | 251 | 19.3 | 30.6 | 0.00 | 0.00 | 0.00 | 58 | |
| 20260905120536 | 18 | 246 | 19.3 | 27.4 | 0.00 | 0.00 | 0.00 | 59 | |
| 20260905115535 | 18 | 240 | 19.3 | 25.7 | 0.00 | 0.00 | 0.00 | 57 | |
| 20260905114534 | 18 | 252 | 19.3 | 27.4 | 0.00 | 0.00 | 0.00 | 58 | |
| 20260905113533 | 18 | 260 | 22.5 | 33.8 | 0.00 | 0.00 | 0.00 | 55 | |
| 20260905112531 | 18 | 245 | 22.5 | 32.2 | 0.00 | 0.00 | 0.00 | 57 | |
| 20260905111531 | 18 | 234 | 24.1 | 33.8 | 0.00 | 0.00 | 0.00 | 56 | |
| 20260905110530 | 18 | 241 | 25.7 | 35.4 | 0.00 | 0.00 | 0.00 | 58 | |
| 20260905105529 | 18 | 241 | 25.7 | 37.0 | 0.00 | 0.00 | 0.00 | 57 | |
| 20260905104528 | 18 | 251 | 25.7 | 41.8 | 0.00 | 0.00 | 0.00 | 58 | |
| 20260905103526 | 18 | 228 | 25.7 | 41.8 | 0.00 | 0.00 | 0.00 | 57 | |
| 20260905102526 | 18 | 270 | 24.1 | 37.0 | 0.00 | 0.00 | 0.00 | 59 | |
| 20260905101525 | 17 | 240 | 25.7 | 40.2 | 0.00 | 0.00 | 0.00 | 60 | |
| 20260905100524 | 17 | 240 | 22.5 | 37.0 | 0.00 | 0.00 | 0.00 | 65 | |
| 20260905095522 | 17 | 277 | 24.1 | 35.4 | 0.00 | 0.00 | 0.00 | 63 | |
| 20260905094521 | 17 | 244 | 22.5 | 35.4 | 0.00 | 0.00 | 0.00 | 64 | |
| 20260905093520 | 17 | 258 | 22.5 | 37.0 | 0.00 | 0.00 | 0.00 | 64 | |
| 20260905092519 | 17 | 258 | 24.1 | 38.6 | 0.00 | 0.00 | 0.00 | 64 | |
| 20260905091518 | 16 | 246 | 25.7 | 35.4 | 0.00 | 0.00 | 0.00 | 68 | |
| 20260905090517 | 17 | 244 | 24.1 | 37.0 | 0.00 | 0.00 | 0.00 | 69 | |
| 20260905085516 | 17 | 251 | 29.0 | 45.1 | 0.00 | 0.00 | 0.00 | 66 | |
| 20260905084515 | 17 | 235 | 27.4 | 38.6 | 0.00 | 0.00 | 0.00 | 68 | |
| 20260905083514 | 17 | 245 | 29.0 | 41.8 | 0.00 | 0.00 | 0.00 | 69 | |
| 20260905082513 | 17 | 240 | 25.7 | 41.8 | 0.00 | 0.00 | 0.00 | 70 | |
| 20260905081512 | 16 | 251 | 24.1 | 37.0 | 0.00 | 0.00 | 0.00 | 71 | |
| 20260905080511 | 17 | 246 | 25.7 | 33.8 | 0.00 | 0.00 | 0.00 | 71 | |
| 20260905075510 | 16 | 228 | 25.7 | 35.4 | 0.00 | 0.00 | 0.00 | 73 | |
| 20260905074509 | 16 | 242 | 24.1 | 35.4 | 0.00 | 0.00 | 0.00 | 73 | |
| 20260905073508 | 16 | 264 | 24.1 | 38.6 | 0.00 | 0.00 | 0.00 | 76 | |
| 20260905072506 | 16 | 246 | 22.5 | 33.8 | 0.00 | 0.00 | 0.00 | 75 | |
| 20260905071505 | 16 | 234 | 24.1 | 33.8 | 0.00 | 0.00 | 0.00 | 76 | |
| 20260905070504 | 16 | 262 | 22.5 | 33.8 | 0.00 | 0.00 | 0.00 | 77 | |
| 20260905065503 | 16 | 251 | 22.5 | 32.2 | 0.00 | 0.00 | 0.00 | 78 | |
| 20260905064502 | 16 | 243 | 19.3 | 29.0 | 0.00 | 0.00 | 0.00 | 79 | |
| 20260905063501 | 16 | 246 | 22.5 | 35.4 | 0.00 | 0.00 | 0.00 | 80 | |
| 20260905062500 | 16 | 238 | 22.5 | 32.2 | 0.00 | 0.00 | 0.00 | 80 | |
| 20260905061458 | 15 | 242 | 20.9 | 32.2 | 0.00 | 0.00 | 0.00 | 82 | |
| 20260905060457 | 15 | 231 | 19.3 | 30.6 | 0.00 | 0.00 | 0.00 | 82 | |
| 20260905054555 | 15 | 252 | 22.5 | 35.4 | 0.00 | 0.00 | 0.00 | 82 | |
| 20260905053554 | 15 | 240 | 22.5 | 32.2 | 0.00 | 0.00 | 0.00 | 83 | |
| 20260905052553 | 15 | 228 | 19.3 | 25.7 | 0.00 | 0.00 | 0.00 | 83 | |
| 20260905051552 | 15 | 264 | 17.7 | 24.1 | 0.00 | 0.00 | 0.00 | 83 | |
| 20260905050551 | 15 | 240 | 16.1 | 22.5 | 0.00 | 0.00 | 0.00 | 85 | |
| 20260905045550 | 15 | 249 | 17.7 | 24.1 | 0.00 | 0.00 | 0.00 | 85 | |
| 20260905044549 | 15 | 246 | 17.7 | 22.5 | 0.00 | 0.00 | 0.00 | 84 | |
| 20260905043548 | 15 | 243 | 17.7 | 24.1 | 0.00 | 0.00 | 0.00 | 84 | |
| 20260905042547 | 15 | 228 | 19.3 | 25.7 | 0.00 | 0.00 | 0.00 | 84 | |
| 20260905041545 | 15 | 252 | 20.9 | 27.4 | 0.00 | 0.00 | 0.00 | 84 | |
| 20260905040545 | 15 | 232 | 17.7 | 24.1 | 0.00 | 0.00 | 0.00 | 84 | |
| 20260905035543 | 16 | 246 | 20.9 | 25.7 | 0.00 | 0.00 | 0.00 | 84 | |
| 20260905034542 | 16 | 256 | 19.3 | 25.7 | 0.00 | 0.00 | 0.00 | 84 | |
| 20260905033541 | 15 | 237 | 19.3 | 27.4 | 0.00 | 0.00 | 0.00 | 85 | |
| 20260905032540 | 16 | 238 | 19.3 | 25.7 | 0.00 | 0.00 | 0.00 | 85 | |
| 20260905031539 | 16 | 243 | 20.9 | 27.4 | 0.00 | 0.00 | 0.00 | 85 | |
| 20260905030538 | 16 | 252 | 19.3 | 25.7 | 0.00 | 0.00 | 0.00 | 85 | |
| 20260905025537 | 16 | 246 | 19.3 | 27.4 | 0.00 | 0.00 | 0.00 | 83 | |
| 20260905024536 | 16 | 240 | 19.3 | 27.4 | 0.00 | 0.00 | 0.00 | 85 | |
| 20260905023535 | 16 | 233 | 20.9 | 27.4 | 0.00 | 0.00 | 0.00 | 85 | |
| 20260905022535 | 16 | 222 | 19.3 | 30.6 | 0.00 | 0.00 | 0.00 | 85 | |
| 20260905021533 | 16 | 234 | 19.3 | 25.7 | 0.00 | 0.00 | 0.00 | 86 | |
| 20260905020531 | 16 | 221 | 19.3 | 32.2 | 0.00 | 0.00 | 0.00 | 86 | |
| 20260905015531 | 16 | 234 | 19.3 | 27.4 | 0.00 | 0.00 | 0.00 | 87 | |
| 20260905014530 | 16 | 228 | 19.3 | 24.1 | 0.00 | 0.00 | 0.00 | 87 | |
| 20260905013528 | 16 | 240 | 19.3 | 30.6 | 0.00 | 0.00 | 0.00 | 87 | |
| 20260905012527 | 16 | 234 | 19.3 | 27.4 | 0.00 | 0.00 | 0.00 | 87 | |
| 20260905011526 | 16 | 222 | 19.3 | 25.7 | 0.00 | 0.00 | 0.00 | 87 | |
| 20260905010525 | 16 | 227 | 19.3 | 25.7 | 0.00 | 0.00 | 0.00 | 87 | |
| 20260905005523 | 16 | 233 | 20.9 | 32.2 | 0.00 | 0.00 | 0.00 | 88 | |
| 20260905004522 | 16 | 243 | 19.3 | 29.0 | 0.00 | 0.00 | 0.00 | 89 | |
| 20260905003521 | 16 | 226 | 20.9 | 33.8 | 0.00 | 0.00 | 0.00 | 89 | |
| 20260905002520 | 16 | 240 | 20.9 | 30.6 | 0.00 | 0.00 | 0.00 | 88 | |
| 20260905001519 | 16 | 231 | 20.9 | 32.2 | 0.00 | 0.00 | 0.00 | 89 | |
| 20260905000517 | 16 | 246 | 19.3 | 25.7 | 0.03 | 0.00 | 0.00 | 89 | |
| 20260904235516 | 15 | 234 | 19.3 | 33.8 | 0.03 | 0.00 | 0.00 | 89 | |
| 20260904234515 | 16 | 232 | 22.5 | 30.6 | 0.03 | 0.00 | 0.00 | 88 | |
| 20260904233514 | 16 | 240 | 24.1 | 33.8 | 0.00 | 0.00 | 0.00 | 86 | |
| 20260904232513 | 16 | 234 | 22.5 | 33.8 | 0.00 | 0.00 | 0.00 | 86 | |
| 20260904231512 | 16 | 240 | 22.5 | 35.4 | 0.00 | 0.00 | 0.00 | 86 | |
| 20260904230511 | 16 | 228 | 25.7 | 41.8 | 0.03 | 0.00 | 0.00 | 84 | |
| 20260904225510 | 16 | 222 | 25.7 | 38.6 | 0.03 | 0.00 | 0.00 | 82 | |
| 20260904224509 | 17 | 240 | 25.7 | 35.4 | 0.03 | 0.00 | 0.00 | 81 | |
| 20260904223508 | 17 | 234 | 25.7 | 33.8 | 0.00 | 0.00 | 0.00 | 79 | |
| 20260904222507 | 17 | 211 | 22.5 | 33.8 | 0.00 | 0.00 | 0.00 | 80 | |
| 20260904221506 | 17 | 243 | 19.3 | 27.4 | 0.00 | 0.00 | 0.00 | 83 | |
| 20260904220505 | 17 | 222 | 19.3 | 27.4 | 0.00 | 0.00 | 0.00 | 84 | |
| 20260904215504 | 17 | 221 | 14.5 | 29.0 | 0.00 | 0.00 | 0.00 | 86 | |
| 20260904214503 | 18 | 222 | 17.7 | 25.7 | 0.00 | 0.00 | 0.00 | 87 | |
| 20260904213502 | 18 | 227 | 16.1 | 24.1 | 0.00 | 0.00 | 0.00 | 88 | |
| 20260904212500 | 18 | 192 | 16.1 | 20.9 | 0.00 | 0.00 | 0.00 | 90 | |
| 20260904211459 | 18 | 216 | 14.5 | 24.1 | 0.00 | 0.00 | 0.00 | 91 | |
| 20260904210457 | 17 | 210 | 12.9 | 22.5 | 0.00 | 0.00 | 0.00 | 93 | |
| 20260904205457 | 17 | 243 | 12.9 | 20.9 | 0.00 | 0.00 | 0.00 | 92 | |
| 20260904204456 | 17 | 226 | 16.1 | 20.9 | 0.00 | 0.00 | 0.00 | 89 | |
| 20260904203455 | 17 | 234 | 12.9 | 17.7 | 0.00 | 0.00 | 0.00 | 89 | |
| 20260904202454 | 17 | 240 | 14.5 | 17.7 | 0.00 | 0.00 | 0.00 | 89 | |
| 20260904201453 | 17 | 251 | 12.9 | 19.3 | 0.00 | 0.00 | 0.00 | 89 | |
| 20260904200451 | 18 | 252 | 14.5 | 19.3 | 0.00 | 0.00 | 0.00 | 88 | |
| 20260904195450 | 17 | 274 | 16.1 | 20.9 | 0.00 | 0.00 | 0.00 | 88 | |
| 20260904194449 | 17 | 246 | 16.1 | 22.5 | 0.03 | 0.00 | 0.00 | 91 | |
| 20260904193447 | 17 | 272 | 17.7 | 27.4 | 0.13 | 0.00 | 0.00 | 91 | |
| 20260904192447 | 18 | 260 | 22.5 | 33.8 | 0.13 | 0.00 | 0.00 | 93 | |
| 20260904191446 | 18 | 256 | 32.2 | 64.4 | 0.10 | 0.00 | 0.00 | 91 | |
| 20260904190444 | 22 | 250 | 24.1 | 45.1 | 0.00 | 0.00 | 0.00 | 72 | |
| 20260904185443 | 23 | 196 | 16.1 | 27.4 | 0.00 | 0.00 | 0.00 | 63 | |
| 20260904184442 | 23 | 191 | 12.9 | 24.1 | 0.00 | 0.00 | 0.00 | 63 |